Time;durP1;ratioP1;P1;durP2;ratioP2;P2;SDS_P1;SDS_P2;PMS_P1;PMS_P2;Temp;Humidity;BMP_temperature;BMP_pressure;BME280_temperature;BME280_humidity;BME280_pressure;Samples;Min_cycle;Max_cycle;Signal;HPM_P1;HPM_P2
2023/02/14 00:01:11;;;;;;;29.25;18.13;;;4.80;99.90;;;;;;5032349;28;20120;-52
2023/02/14 00:03:37;;;;;;;27.27;18.13;;;4.80;99.90;;;;;;5032033;28;20096;-51
2023/02/14 00:06:08;;;;;;;28.98;18.70;;;4.70;99.90;;;;;;5031784;28;20552;-50
2023/02/14 00:08:33;;;;;;;29.38;18.80;;;4.60;99.90;;;;;;5031955;28;20109;-50
2023/02/14 00:10:59;;;;;;;30.25;18.95;;;4.50;99.90;;;;;;5014285;28;20113;-55
2023/02/14 00:13:24;;;;;;;29.05;17.98;;;4.50;99.90;;;;;;5031621;28;20028;-53
2023/02/14 00:15:50;;;;;;;26.75;18.17;;;4.40;99.90;;;;;;5031758;28;20097;-52
2023/02/14 00:18:15;;;;;;;27.20;17.42;;;4.40;99.90;;;;;;5031792;28;20022;-51
2023/02/14 00:20:41;;;;;;;28.55;18.67;;;4.40;99.90;;;;;;5013792;28;20053;-51
2023/02/14 00:23:06;;;;;;;29.95;16.85;;;4.30;99.90;;;;;;5031738;28;20465;-52
2023/02/14 00:25:33;;;;;;;29.13;18.08;;;4.30;99.90;;;;;;5031858;28;20128;-53
2023/02/14 00:27:59;;;;;;;24.45;15.88;;;4.20;99.90;;;;;;5031939;28;20025;-55
2023/02/14 00:30:24;;;;;;;23.00;15.73;;;4.20;99.90;;;;;;5032230;28;20040;-52
2023/02/14 00:32:50;;;;;;;24.02;14.70;;;4.10;99.90;;;;;;5031850;28;20022;-50
2023/02/14 00:35:15;;;;;;;22.45;14.63;;;4.10;99.90;;;;;;5031753;28;20022;-54
2023/02/14 00:37:41;;;;;;;21.48;14.50;;;4.10;99.90;;;;;;5014104;28;20116;-54
2023/02/14 00:40:07;;;;;;;24.30;13.32;;;3.90;99.90;;;;;;5014167;28;20036;-56
2023/02/14 00:42:33;;;;;;;24.10;14.02;;;3.80;99.90;;;;;;5013824;28;20035;-54
2023/02/14 00:44:58;;;;;;;19.23;12.35;;;3.70;99.90;;;;;;5031167;28;20034;-56
2023/02/14 00:47:24;;;;;;;23.30;13.88;;;3.60;99.90;;;;;;5031575;28;20033;-53
2023/02/14 00:49:49;;;;;;;19.88;12.60;;;3.60;99.90;;;;;;5013948;28;20481;-53
2023/02/14 00:52:15;;;;;;;23.08;14.75;;;3.50;99.90;;;;;;5031602;28;20022;-53
2023/02/14 00:54:41;;;;;;;31.10;17.50;;;3.40;99.90;;;;;;5013298;28;20048;-53
2023/02/14 00:57:06;;;;;;;25.65;13.60;;;3.40;99.90;;;;;;5031514;28;20101;-52
2023/02/14 00:59:32;;;;;;;28.70;17.92;;;3.40;99.90;;;;;;5031417;28;20032;-53
2023/02/14 01:01:57;;;;;;;22.40;14.73;;;3.40;99.90;;;;;;5031352;28;20029;-52
2023/02/14 01:04:23;;;;;;;19.23;12.95;;;3.40;99.90;;;;;;5031176;28;20029;-50
2023/02/14 01:06:48;;;;;;;16.15;11.68;;;3.30;99.90;;;;;;5013612;28;20374;-52
2023/02/14 01:09:14;;;;;;;18.30;13.23;;;3.20;99.90;;;;;;5031397;28;20021;-55
2023/02/14 01:11:39;;;;;;;22.23;13.70;;;3.10;99.90;;;;;;5031186;28;20129;-53
2023/02/14 01:14:05;;;;;;;17.88;13.38;;;3.10;99.90;;;;;;5031283;28;20108;-52
2023/02/14 01:16:31;;;;;;;25.20;13.88;;;3.10;99.90;;;;;;5031238;28;20061;-53
2023/02/14 01:18:59;;;;;;;25.73;15.10;;;3.10;99.90;;;;;;5031636;28;20026;-53
2023/02/14 01:21:31;;;;;;;24.77;15.50;;;3.10;99.90;;;;;;5031654;28;20493;-54
2023/02/14 01:24:00;;;;;;;27.52;16.48;;;3.20;99.90;;;;;;5031196;28;20489;-54
2023/02/14 01:26:26;;;;;;;27.25;18.38;;;3.20;99.90;;;;;;5013581;28;20112;-52
2023/02/14 01:28:52;;;;;;;27.40;18.67;;;3.20;99.90;;;;;;5013924;28;20434;-54
2023/02/14 01:31:23;;;;;;;31.73;19.08;;;3.20;99.90;;;;;;5014839;28;20255;-54
2023/02/14 01:33:49;;;;;;;31.75;20.48;;;3.20;99.90;;;;;;5034636;28;20539;-51
2023/02/14 01:36:21;;;;;;;34.45;20.85;;;3.30;99.90;;;;;;5034890;28;20029;-51
2023/02/14 01:38:49;;;;;;;31.27;20.15;;;3.30;99.90;;;;;;5034905;28;20075;-51
2023/02/14 01:41:15;;;;;;;32.13;18.52;;;3.30;99.90;;;;;;5035198;28;20112;-52
2023/02/14 01:43:56;;;;;;;31.33;19.67;;;3.30;99.90;;;;;;5034599;28;20548;-55
2023/02/14 01:46:23;;;;;;;36.67;18.92;;;3.30;99.90;;;;;;5034701;28;20032;-51
2023/02/14 01:48:52;;;;;;;34.50;20.63;;;3.30;99.90;;;;;;5034814;28;20037;-56
2023/02/14 01:51:19;;;;;;;31.20;20.20;;;3.30;99.90;;;;;;5034799;28;20048;-55
2023/02/14 01:53:45;;;;;;;33.45;21.20;;;3.30;99.90;;;;;;5016808;28;20447;-51
2023/02/14 01:56:17;;;;;;;33.55;21.05;;;3.30;99.90;;;;;;5034433;28;20021;-53
2023/02/14 01:58:45;;;;;;;34.50;21.23;;;3.30;99.90;;;;;;5034811;28;20025;-52
2023/02/14 02:01:16;;;;;;;33.25;20.90;;;3.30;99.90;;;;;;5017074;28;20500;-51
2023/02/14 02:03:54;;;;;;;39.25;22.15;;;3.30;99.90;;;;;;5016640;28;20120;-52
2023/02/14 02:06:34;;;;;;;35.33;21.27;;;3.30;99.90;;;;;;5034394;28;20029;-54
2023/02/14 02:09:15;;;;;;;28.23;18.90;;;3.20;99.90;;;;;;5034269;28;20017;-52
2023/02/14 02:11:41;;;;;;;32.92;19.40;;;3.20;99.90;;;;;;5034418;28;20092;-51
2023/02/14 02:14:13;;;;;;;33.50;20.75;;;3.20;99.90;;;;;;5034080;28;20038;-50
2023/02/14 02:16:52;;;;;;;34.30;20.13;;;3.20;99.90;;;;;;5034357;28;20025;-53
2023/02/14 02:19:21;;;;;;;32.83;21.17;;;3.30;99.90;;;;;;5034375;28;20584;-49
2023/02/14 02:22:28;;;;;;;26.38;15.85;;;3.20;99.90;;;;;;5034153;28;20071;-53
2023/02/14 02:25:00;;;;;;;;;;;3.20;99.90;;;;;;5033717;28;20144;-50
2023/02/14 02:28:00;;;;;;;29.77;18.33;;;3.00;99.90;;;;;;5034025;28;19909;-53
2023/02/14 02:30:44;;;;;;;33.63;20.63;;;2.80;99.90;;;;;;5034069;28;20030;-52
2023/02/14 02:33:38;;;;;;;40.22;21.10;;;2.80;99.90;;;;;;5015771;28;20018;-51
2023/02/14 02:36:14;;;;;;;36.97;21.02;;;2.80;99.90;;;;;;5033645;28;20415;-50
2023/02/14 02:39:01;;;;;;;35.00;20.00;;;2.80;99.90;;;;;;5033845;28;20021;-55
2023/02/14 02:41:32;;;;;;;26.27;17.23;;;2.70;99.90;;;;;;5034173;28;20021;-53
2023/02/14 02:44:14;;;;;;;28.80;17.77;;;2.70;99.90;;;;;;5033553;28;20134;-52
2023/02/14 02:46:55;;;;;;;27.50;17.38;;;2.60;99.90;;;;;;5033593;28;20108;-53
2023/02/14 02:53:02;;;;;;;28.85;18.33;;;2.60;99.90;;;;;;4995803;28;20040;-51
2023/02/14 02:59:24;;;;;;;27.00;16.90;;;2.50;99.90;;;;;;5008217;28;20029;-50
2023/02/14 03:02:06;;;;;;;25.63;16.30;;;2.50;99.90;;;;;;4934014;29;20096;-53
2023/02/14 03:04:52;;;;;;;23.90;14.27;;;2.50;99.90;;;;;;4933636;29;20127;-51
2023/02/14 03:07:37;;;;;;;24.30;14.65;;;2.40;99.90;;;;;;5004968;28;20033;-54
2023/02/14 03:10:21;;;;;;;24.10;14.73;;;2.40;99.90;;;;;;5033304;28;20017;-50
2023/02/14 03:13:08;;;;;;;20.10;13.60;;;2.30;99.90;;;;;;5033075;28;20087;-52
2023/02/14 03:15:51;;;;;;;20.73;14.27;;;2.30;99.90;;;;;;5015249;28;20025;-51
2023/02/14 03:21:25;;;;;;;20.95;13.65;;;2.20;99.90;;;;;;5033121;28;20121;-53
2023/02/14 03:24:07;;;;;;;19.55;12.77;;;2.10;99.90;;;;;;5014963;28;20025;-51
2023/02/14 03:26:46;;;;;;;20.33;13.63;;;2.10;99.90;;;;;;5015294;28;20034;-53
2023/02/14 03:29:22;;;;;;;23.58;13.60;;;2.00;99.90;;;;;;5032956;28;20029;-53
2023/02/14 03:31:56;;;;;;;20.27;13.15;;;1.90;99.90;;;;;;5032862;28;20029;-55
2023/02/14 03:34:33;;;;;;;24.57;14.03;;;1.80;99.90;;;;;;5032643;28;20103;-55
2023/02/14 03:37:12;;;;;;;23.27;14.45;;;1.80;99.90;;;;;;5032965;28;20134;-57
2023/02/14 03:39:52;;;;;;;23.45;13.43;;;1.80;99.90;;;;;;5015373;28;20128;-52
2023/02/14 03:42:32;;;;;;;22.15;14.27;;;1.70;99.90;;;;;;5032654;28;20029;-51
2023/02/14 03:45:02;;;;;;;28.08;18.35;;;1.70;99.90;;;;;;5032280;28;20124;-50
2023/02/14 03:47:31;;;;;;;27.80;17.00;;;1.80;99.90;;;;;;5032533;28;20076;-52
2023/02/14 03:50:02;;;;;;;22.77;14.55;;;1.80;99.90;;;;;;5032410;28;20378;-52
2023/02/14 03:52:31;;;;;;;36.80;20.30;;;1.90;99.90;;;;;;5032400;28;20028;-51
2023/02/14 03:54:59;;;;;;;32.80;20.20;;;1.90;99.90;;;;;;5013778;28;20022;-51
2023/02/14 03:57:46;;;;;;;35.42;21.42;;;1.90;99.90;;;;;;5032419;28;20025;-50
2023/02/14 04:00:12;;;;;;;33.33;22.17;;;2.00;99.90;;;;;;5032548;28;20365;-52
2023/02/14 04:02:43;;;;;;;36.63;21.85;;;2.10;99.90;;;;;;5032323;28;20041;-50
2023/02/14 04:05:15;;;;;;;34.97;22.13;;;2.00;99.90;;;;;;5031894;28;20029;-51
2023/02/14 04:07:47;;;;;;;39.60;23.13;;;2.10;99.90;;;;;;5014321;28;20030;-54
2023/02/14 04:10:13;;;;;;;38.78;23.35;;;2.10;99.90;;;;;;5032340;28;20093;-50
2023/02/14 04:12:39;;;;;;;38.63;22.25;;;2.10;99.90;;;;;;5032692;28;20026;-52
2023/02/14 04:15:05;;;;;;;37.25;21.80;;;2.10;99.90;;;;;;5031819;28;20053;-52
2023/02/14 04:20:14;;;;;;;34.33;21.05;;;1.80;99.90;;;;;;5032376;28;20106;-55
2023/02/14 04:22:40;;;;;;;28.30;18.33;;;1.80;99.90;;;;;;5014290;28;20481;-55
2023/02/14 04:25:06;;;;;;;28.85;17.70;;;1.70;99.90;;;;;;5031673;28;20026;-52
2023/02/14 04:27:31;;;;;;;26.42;16.23;;;1.60;99.90;;;;;;5031898;28;20405;-52
2023/02/14 04:29:57;;;;;;;27.85;16.02;;;1.50;99.90;;;;;;5032070;28;20052;-54
2023/02/14 04:32:22;;;;;;;27.40;17.70;;;1.50;99.90;;;;;;5014018;28;20111;-54
2023/02/14 04:34:48;;;;;;;24.55;15.82;;;1.50;99.90;;;;;;5031406;28;20033;-50
2023/02/14 04:37:16;;;;;;;27.30;17.60;;;1.50;99.90;;;;;;5014183;28;20025;-51
2023/02/14 04:39:41;;;;;;;26.45;17.13;;;1.50;99.90;;;;;;5014290;28;20421;-49
2023/02/14 04:42:07;;;;;;;22.50;14.82;;;1.60;99.90;;;;;;5031474;28;20067;-56
2023/02/14 04:44:33;;;;;;;21.15;14.35;;;1.60;99.90;;;;;;5013391;28;20041;-50
2023/02/14 04:47:00;;;;;;;25.23;15.40;;;1.60;99.90;;;;;;5031485;28;20029;-52
2023/02/14 04:49:26;;;;;;;25.33;15.55;;;1.60;99.90;;;;;;5031549;28;20422;-54
2023/02/14 04:51:52;;;;;;;23.35;16.05;;;1.60;99.90;;;;;;5013825;28;20563;-52
2023/02/14 04:54:17;;;;;;;21.98;15.25;;;1.60;99.90;;;;;;5013347;28;20201;-52
2023/02/14 04:56:43;;;;;;;23.20;14.75;;;1.60;99.90;;;;;;5031416;28;20032;-54
2023/02/14 04:59:09;;;;;;;28.17;16.45;;;1.60;99.90;;;;;;5031324;28;20017;-53
2023/02/14 05:01:34;;;;;;;22.40;14.85;;;1.50;99.90;;;;;;5031383;28;20087;-53
2023/02/14 05:04:00;;;;;;;19.30;14.15;;;1.40;99.90;;;;;;5031354;28;20021;-53
2023/02/14 05:06:27;;;;;;;16.10;12.10;;;1.40;99.90;;;;;;5030225;28;20069;-55
2023/02/14 05:08:53;;;;;;;15.68;12.68;;;1.40;99.90;;;;;;5031511;28;20133;-55
2023/02/14 05:11:19;;;;;;;16.98;12.95;;;1.40;99.90;;;;;;5031345;28;20026;-53
2023/02/14 05:13:44;;;;;;;54.42;12.23;;;1.40;99.90;;;;;;5031159;28;20030;-57
2023/02/14 05:16:10;;;;;;;34.47;12.27;;;1.40;99.90;;;;;;5031174;28;20105;-53
2023/02/14 05:18:35;;;;;;;23.17;13.80;;;1.20;99.90;;;;;;5031476;28;20025;-53
2023/02/14 05:21:01;;;;;;;15.93;11.65;;;1.10;99.90;;;;;;5031350;28;20029;-52
2023/02/14 05:23:26;;;;;;;16.08;11.55;;;1.10;99.90;;;;;;5030986;28;20041;-53
2023/02/14 05:25:52;;;;;;;16.85;13.25;;;1.00;99.90;;;;;;5031006;28;20036;-52
2023/02/14 05:28:19;;;;;;;18.90;12.82;;;1.00;99.90;;;;;;5030998;28;20117;-52
2023/02/14 05:30:45;;;;;;;23.10;14.07;;;1.00;99.90;;;;;;5013530;28;20397;-55
2023/02/14 05:33:10;;;;;;;22.15;15.27;;;1.00;99.90;;;;;;5030730;28;20033;-55
2023/02/14 05:35:35;;;;;;;18.98;14.13;;;1.00;99.90;;;;;;5013320;28;20022;-52
2023/02/14 05:38:01;;;;;;;23.48;15.02;;;1.10;99.90;;;;;;5031118;28;20547;-55
2023/02/14 05:40:27;;;;;;;25.40;14.70;;;1.10;99.90;;;;;;5031004;28;20059;-54
2023/02/14 05:42:54;;;;;;;26.77;18.08;;;1.00;99.90;;;;;;5013208;28;20025;-52
2023/02/14 05:45:21;;;;;;;29.92;17.60;;;0.90;99.90;;;;;;5068364;23;20472;-50
2023/02/14 05:47:47;;;;;;;35.92;19.73;;;0.80;99.90;;;;;;5050674;28;20033;-49
2023/02/14 05:50:13;;;;;;;37.70;20.77;;;0.80;99.90;;;;;;5032877;28;20215;-52
2023/02/14 05:52:39;;;;;;;38.22;21.60;;;0.90;99.90;;;;;;5050950;28;20096;-48
2023/02/14 05:55:05;;;;;;;40.42;22.25;;;0.90;99.90;;;;;;5050637;28;20104;-48
2023/02/14 05:57:31;;;;;;;39.13;22.33;;;1.00;99.90;;;;;;5033036;28;20033;-51
2023/02/14 05:59:56;;;;;;;42.72;23.15;;;1.10;99.90;;;;;;5050652;28;20037;-51
2023/02/14 06:02:22;;;;;;;37.03;20.90;;;1.20;99.90;;;;;;5050559;28;20017;-51
2023/02/14 06:04:47;;;;;;;37.63;20.90;;;1.20;99.90;;;;;;5050381;28;20028;-53
2023/02/14 06:07:13;;;;;;;46.97;23.65;;;1.20;99.90;;;;;;5050625;28;20098;-51
2023/02/14 06:09:38;;;;;;;42.10;24.52;;;1.20;99.90;;;;;;5050743;28;20029;-53
2023/02/14 06:12:04;;;;;;;45.70;23.35;;;1.20;99.90;;;;;;5050683;28;20444;-51
2023/02/14 06:14:29;;;;;;;38.72;22.10;;;1.10;99.90;;;;;;5032720;28;20029;-53
2023/02/14 06:16:55;;;;;;;43.72;21.17;;;1.10;99.90;;;;;;5033266;28;20051;-52
2023/02/14 06:19:21;;;;;;;40.53;22.27;;;1.00;99.90;;;;;;5036100;28;20021;-51
2023/02/14 06:21:46;;;;;;;39.63;21.63;;;1.00;99.90;;;;;;5054032;28;20033;-50
2023/02/14 06:24:12;;;;;;;40.72;22.55;;;1.00;99.90;;;;;;5053907;28;20033;-52
2023/02/14 06:26:38;;;;;;;40.28;23.25;;;1.00;99.90;;;;;;5053642;28;20032;-49
2023/02/14 06:29:03;;;;;;;40.65;23.05;;;1.00;99.90;;;;;;5053921;28;20021;-50
2023/02/14 06:31:29;;;;;;;35.88;20.33;;;1.10;99.90;;;;;;5053861;28;20029;-49
2023/02/14 06:33:55;;;;;;;38.75;20.67;;;1.00;99.90;;;;;;5053350;28;20021;-54
2023/02/14 06:36:21;;;;;;;38.00;21.20;;;1.20;99.90;;;;;;5053476;28;20040;-51
2023/02/14 06:38:47;;;;;;;37.38;20.80;;;1.10;99.90;;;;;;5053881;28;20493;-54
2023/02/14 06:41:15;;;;;;;31.08;20.65;;;1.10;99.90;;;;;;5053770;28;20025;-50
2023/02/14 06:43:41;;;;;;;40.05;22.20;;;1.20;99.90;;;;;;5053476;28;20095;-51
2023/02/14 06:46:07;;;;;;;37.28;21.90;;;1.30;99.90;;;;;;5035992;28;20515;-50
2023/02/14 06:48:32;;;;;;;39.63;21.67;;;1.40;99.90;;;;;;5035991;28;20029;-48
2023/02/14 06:50:58;;;;;;;34.20;18.95;;;1.40;99.90;;;;;;5054480;28;20449;-52
2023/02/14 06:53:23;;;;;;;35.83;21.95;;;1.50;99.90;;;;;;5054046;28;20025;-50
2023/02/14 06:55:49;;;;;;;32.60;20.58;;;1.60;99.90;;;;;;5036384;28;20594;-52
2023/02/14 06:58:14;;;;;;;34.28;21.25;;;1.60;99.90;;;;;;5053903;28;20364;-50
2023/02/14 07:00:40;;;;;;;34.63;20.65;;;1.70;99.90;;;;;;5035659;28;20104;-53
2023/02/14 07:03:06;;;;;;;36.20;21.42;;;1.80;99.90;;;;;;5035155;28;20040;-49
2023/02/14 07:05:32;;;;;;;36.15;18.77;;;1.80;99.90;;;;;;5035257;28;20496;-52
2023/02/14 07:07:58;;;;;;;33.45;19.73;;;1.90;99.90;;;;;;5054436;28;20029;-52
2023/02/14 07:10:24;;;;;;;34.20;19.63;;;1.90;99.90;;;;;;5036123;28;20028;-50
2023/02/14 07:12:49;;;;;;;29.17;17.77;;;2.00;99.90;;;;;;5053494;28;20476;-53
2023/02/14 07:15:15;;;;;;;31.38;19.88;;;2.00;99.90;;;;;;5052999;28;20103;-54
2023/02/14 07:17:40;;;;;;;32.03;19.02;;;2.20;99.90;;;;;;5035233;28;20025;-50
2023/02/14 07:20:08;;;;;;;35.55;20.55;;;2.40;99.90;;;;;;5035152;28;20029;-51
2023/02/14 07:22:33;;;;;;;30.65;19.23;;;2.30;99.90;;;;;;5053014;28;20425;-50
2023/02/14 07:24:59;;;;;;;33.72;18.55;;;2.30;99.90;;;;;;5034752;28;20025;-54
2023/02/14 07:27:25;;;;;;;37.03;22.23;;;2.20;99.90;;;;;;5052683;28;20274;-50
2023/02/14 07:29:50;;;;;;;45.83;21.35;;;2.20;99.90;;;;;;5051871;28;20028;-49
2023/02/14 07:32:16;;;;;;;45.58;23.58;;;2.10;99.90;;;;;;5034489;28;20446;-49
2023/02/14 07:34:41;;;;;;;45.90;22.25;;;1.90;99.90;;;;;;5034604;28;20488;-56
2023/02/14 07:37:07;;;;;;;41.00;22.58;;;1.70;99.90;;;;;;5034806;28;20392;-49
2023/02/14 07:39:32;;;;;;;47.08;22.77;;;1.60;99.90;;;;;;5052649;28;20120;-49
2023/02/14 07:41:58;;;;;;;41.10;22.30;;;1.60;99.90;;;;;;5052565;28;20033;-52
2023/02/14 07:44:23;;;;;;;42.35;20.55;;;1.60;99.90;;;;;;5034254;28;20052;-48
2023/02/14 07:46:49;;;;;;;42.90;23.30;;;1.50;99.90;;;;;;5034620;28;20150;-50
2023/02/14 07:49:14;;;;;;;39.80;23.20;;;1.50;99.90;;;;;;5052390;28;20087;-50
2023/02/14 07:51:40;;;;;;;47.20;23.80;;;1.40;99.90;;;;;;5052212;28;20045;-48
2023/02/14 07:54:06;;;;;;;49.47;23.80;;;1.40;99.90;;;;;;5052207;28;20464;-48
2023/02/14 07:56:31;;;;;;;51.85;24.58;;;1.40;99.90;;;;;;5034302;28;20131;-51
2023/02/14 07:58:57;;;;;;;57.83;25.83;;;1.40;99.90;;;;;;5051910;28;20036;-52
2023/02/14 08:01:22;;;;;;;52.92;23.30;;;1.40;99.90;;;;;;5034203;28;20063;-48
2023/02/14 08:03:48;;;;;;;63.67;25.65;;;1.40;99.90;;;;;;5045155;28;20520;-53
2023/02/14 08:06:15;;;;;;;47.45;24.92;;;1.40;99.90;;;;;;5033975;28;20029;-52
2023/02/14 08:08:40;;;;;;;55.20;25.85;;;1.40;99.90;;;;;;5052338;28;20032;-53
2023/02/14 08:11:06;;;;;;;58.22;26.95;;;1.40;99.90;;;;;;5052305;28;20530;-56
2023/02/14 08:13:32;;;;;;;51.65;25.08;;;1.50;99.90;;;;;;5034004;28;20388;-49
2023/02/14 08:16:03;;;;;;;51.60;26.23;;;1.50;99.90;;;;;;5051847;28;20056;-48
2023/02/14 08:18:34;;;;;;;48.45;25.35;;;1.50;99.90;;;;;;5052019;28;20510;-49
2023/02/14 08:20:59;;;;;;;45.53;23.98;;;1.60;99.90;;;;;;5040845;28;20108;-52
2023/02/14 08:23:25;;;;;;;46.33;24.23;;;1.70;99.90;;;;;;5033318;28;20104;-49
2023/02/14 08:25:51;;;;;;;53.50;24.45;;;1.70;99.90;;;;;;5046817;28;20036;-46
2023/02/14 08:28:18;;;;;;;52.65;25.33;;;1.70;99.90;;;;;;5048582;28;20087;-49
2023/02/14 08:30:44;;;;;;;52.03;24.48;;;1.70;99.90;;;;;;5056652;28;20033;-48
2023/02/14 08:33:11;;;;;;;51.10;25.88;;;1.80;99.90;;;;;;5047899;28;20031;-51
2023/02/14 08:35:36;;;;;;;50.38;26.15;;;1.80;99.90;;;;;;5043049;28;20397;-51
2023/02/14 08:38:03;;;;;;;50.75;25.88;;;1.70;99.90;;;;;;5071799;28;20028;-53
2023/02/14 08:40:29;;;;;;;51.22;26.02;;;1.80;99.90;;;;;;5053748;28;20036;-47
2023/02/14 08:42:54;;;;;;;57.47;26.45;;;1.90;99.90;;;;;;5040084;28;20112;-49
2023/02/14 08:45:20;;;;;;;53.85;25.80;;;2.10;99.90;;;;;;5042344;28;20608;-52
2023/02/14 08:47:46;;;;;;;48.70;25.13;;;2.00;99.90;;;;;;5031414;28;20126;-49
2023/02/14 08:50:15;;;;;;;55.38;26.55;;;2.00;99.90;;;;;;5030443;28;20527;-51
2023/02/14 08:52:42;;;;;;;55.60;25.95;;;2.00;99.90;;;;;;5031057;28;20424;-52
2023/02/14 08:55:08;;;;;;;49.10;27.42;;;2.10;99.90;;;;;;5029405;28;20022;-54
2023/02/14 08:57:33;;;;;;;48.92;26.27;;;2.20;99.90;;;;;;5013441;28;20079;-50
2023/02/14 08:59:59;;;;;;;50.58;24.98;;;2.20;99.90;;;;;;5013602;28;20026;-48
2023/02/14 09:02:24;;;;;;;50.42;25.75;;;2.30;99.90;;;;;;5031312;28;20022;-48
2023/02/14 09:04:50;;;;;;;57.00;26.40;;;2.30;99.90;;;;;;5031221;28;20481;-47
2023/02/14 09:07:15;;;;;;;59.47;26.48;;;2.30;99.90;;;;;;5031151;28;20040;-53
2023/02/14 09:09:41;;;;;;;56.60;25.70;;;2.40;99.90;;;;;;5031370;28;20112;-47
2023/02/14 09:12:08;;;;;;;54.70;26.70;;;2.40;99.90;;;;;;5031481;28;20470;-53
2023/02/14 09:14:40;;;;;;;45.58;24.73;;;2.40;99.90;;;;;;5030950;28;20121;-49
2023/02/14 09:17:06;;;;;;;56.90;27.13;;;2.40;99.90;;;;;;5031254;28;20512;-51
2023/02/14 09:19:33;;;;;;;51.90;27.30;;;2.60;99.90;;;;;;5031187;28;20029;-52
2023/02/14 09:21:59;;;;;;;50.38;25.98;;;2.50;99.90;;;;;;5031354;28;20036;-47
2023/02/14 09:24:26;;;;;;;58.03;27.20;;;2.50;99.90;;;;;;5013413;28;20105;-53
2023/02/14 09:26:52;;;;;;;54.28;27.05;;;2.60;99.90;;;;;;5031136;28;20512;-54
2023/02/14 09:29:17;;;;;;;55.30;27.48;;;2.60;99.90;;;;;;5013768;28;20025;-54
2023/02/14 09:31:43;;;;;;;51.15;28.25;;;2.70;99.90;;;;;;5036788;28;20036;-50
2023/02/14 09:34:08;;;;;;;53.53;26.20;;;2.70;99.90;;;;;;5032682;28;20088;-55
2023/02/14 09:36:34;;;;;;;50.20;25.65;;;2.70;99.90;;;;;;5051062;28;20157;-49
2023/02/14 09:39:00;;;;;;;44.47;23.00;;;2.70;99.90;;;;;;5051622;28;20027;-49
2023/02/14 09:41:28;;;;;;;47.53;24.90;;;2.70;99.90;;;;;;5051345;28;20084;-51
2023/02/14 09:44:04;;;;;;;53.97;26.63;;;2.60;99.90;;;;;;5050759;28;20025;-45
2023/02/14 09:46:38;;;;;;;49.83;24.80;;;2.70;99.90;;;;;;5051017;28;20465;-50
2023/02/14 09:49:03;;;;;;;48.88;24.48;;;2.70;99.90;;;;;;5050864;28;20017;-53
2023/02/14 09:51:30;;;;;;;46.60;24.63;;;2.80;99.90;;;;;;5050710;28;20036;-50
2023/02/14 09:54:02;;;;;;;53.08;25.05;;;2.70;99.90;;;;;;5036612;28;20041;-50
2023/02/14 09:56:52;;;;;;;47.72;25.10;;;2.80;99.90;;;;;;5054266;28;20079;-49
2023/02/14 09:59:44;;;;;;;42.05;22.05;;;2.80;99.90;;;;;;5054634;28;20108;-51
2023/02/14 10:02:21;;;;;;;46.38;23.27;;;2.90;99.90;;;;;;5054842;28;20078;-54
2023/02/14 10:05:00;;;;;;;42.03;22.02;;;2.90;99.90;;;;;;5040869;28;20021;-49
2023/02/14 10:07:38;;;;;;;38.42;21.65;;;2.90;99.90;;;;;;5054617;28;20029;-50
2023/02/14 10:10:33;;;;;;;36.95;20.67;;;2.80;99.90;;;;;;5040068;28;20064;-50
2023/02/14 10:13:36;;;;;;;44.05;22.63;;;2.80;99.90;;;;;;5054191;28;20040;-50
2023/02/14 10:16:14;;;;;;;43.60;23.48;;;2.70;99.90;;;;;;5031342;28;20020;-49
2023/02/14 10:19:07;;;;;;;42.63;21.50;;;2.70;99.90;;;;;;5040300;28;20025;-48
2023/02/14 10:21:40;;;;;;;42.00;21.08;;;2.80;99.90;;;;;;5005091;28;20030;-51
2023/02/14 10:24:26;;;;;;;39.40;21.85;;;2.80;99.90;;;;;;5034056;28;20021;-50
2023/02/14 10:26:53;;;;;;;;;;;2.90;99.90;;;;;;5054369;28;20025;-50
2023/02/14 10:29:19;;;;;;;46.20;21.75;;;2.90;99.90;;;;;;5054310;28;19905;-49
2023/02/14 10:31:56;;;;;;;40.80;21.92;;;2.90;99.90;;;;;;5047837;28;20021;-50
2023/02/14 10:34:29;;;;;;;39.72;22.00;;;2.90;99.90;;;;;;5033406;28;20561;-51
2023/02/14 10:37:18;;;;;;;45.35;23.45;;;2.90;99.90;;;;;;5039046;28;20117;-52
2023/02/14 10:40:09;;;;;;;45.08;23.60;;;2.80;99.90;;;;;;5053669;28;20017;-48
2023/02/14 10:43:17;;;;;;;45.13;22.08;;;2.70;99.90;;;;;;5053645;28;20025;-50
2023/02/14 10:46:03;;;;;;;44.83;23.17;;;2.80;99.90;;;;;;5053495;28;20029;-52
2023/02/14 10:48:48;;;;;;;49.40;23.77;;;2.90;99.90;;;;;;5053719;28;20467;-50
2023/02/14 10:51:29;;;;;;;47.67;24.70;;;3.00;99.90;;;;;;5053540;28;20387;-49
2023/02/14 10:53:58;;;;;;;42.58;22.83;;;2.90;99.90;;;;;;5053455;28;20100;-52
2023/02/14 10:56:35;;;;;;;44.72;23.58;;;3.00;99.90;;;;;;5053314;28;20084;-51
2023/02/14 10:59:32;;;;;;;43.38;22.40;;;3.00;99.90;;;;;;5052561;28;20033;-49
2023/02/14 11:02:00;;;;;;;48.13;23.27;;;2.90;99.90;;;;;;5053319;28;20024;-50
2023/02/14 11:04:26;;;;;;;38.53;22.88;;;2.90;99.90;;;;;;5051667;28;20029;-51
2023/02/14 11:06:52;;;;;;;41.13;22.05;;;2.80;99.90;;;;;;5035639;28;20032;-49
2023/02/14 11:09:18;;;;;;;37.10;21.73;;;2.90;99.90;;;;;;5029681;28;20108;-51
2023/02/14 11:11:50;;;;;;;40.83;20.77;;;2.80;99.90;;;;;;5042759;28;20032;-48
2023/02/14 11:14:23;;;;;;;38.92;20.20;;;2.90;99.90;;;;;;5041164;28;20469;-49
2023/02/14 11:16:51;;;;;;;41.45;22.05;;;2.90;99.90;;;;;;5045840;28;20044;-47
2023/02/14 11:19:23;;;;;;;39.90;21.77;;;2.90;99.90;;;;;;5052773;28;20025;-53
2023/02/14 11:21:50;;;;;;;46.47;22.90;;;3.00;99.90;;;;;;5053292;28;20047;-51
2023/02/14 11:24:34;;;;;;;40.35;22.48;;;3.10;99.90;;;;;;5053140;28;20024;-50
2023/02/14 11:27:09;;;;;;;46.92;22.98;;;3.00;99.90;;;;;;5034579;28;20109;-52
2023/02/14 11:29:40;;;;;;;49.17;24.30;;;2.90;99.90;;;;;;5033138;28;20053;-53
2023/02/14 11:32:09;;;;;;;47.72;23.67;;;2.80;99.90;;;;;;5050477;28;20025;-49
2023/02/14 11:34:52;;;;;;;40.08;22.05;;;2.80;99.90;;;;;;5042159;28;20022;-56
2023/02/14 11:37:21;;;;;;;48.25;23.95;;;2.90;99.90;;;;;;5040139;28;20483;-48
2023/02/14 11:39:47;;;;;;;47.42;24.38;;;3.00;99.90;;;;;;5043600;28;20037;-50
2023/02/14 11:42:13;;;;;;;52.90;24.55;;;3.00;99.90;;;;;;5047782;28;20032;-52
2023/02/14 11:44:54;;;;;;;61.03;25.88;;;3.00;99.90;;;;;;5051890;28;20112;-49
2023/02/14 11:47:36;;;;;;;48.95;24.50;;;2.90;99.90;;;;;;5029586;28;20029;-48
2023/02/14 11:50:19;;;;;;;47.67;23.70;;;2.90;99.90;;;;;;5048356;23;20527;-58
2023/02/14 11:52:50;;;;;;;44.95;24.02;;;3.00;99.90;;;;;;5014794;28;20022;-54
2023/02/14 11:55:26;;;;;;;41.38;22.98;;;3.00;99.90;;;;;;5013950;28;20401;-56
2023/02/14 11:57:53;;;;;;;46.33;22.73;;;3.00;99.90;;;;;;5015396;28;20033;-59
2023/02/14 12:00:20;;;;;;;43.28;22.27;;;3.10;99.90;;;;;;4997817;28;20509;-55
2023/02/14 12:02:49;;;;;;;45.35;23.58;;;3.20;99.90;;;;;;5015140;28;20026;-57
2023/02/14 12:05:27;;;;;;;44.50;23.75;;;3.10;99.90;;;;;;4999593;28;20117;-58
2023/02/14 12:07:56;;;;;;;52.90;25.08;;;3.20;99.90;;;;;;5019793;28;20113;-57
2023/02/14 12:10:29;;;;;;;38.88;23.08;;;3.00;99.90;;;;;;5009133;28;20038;-57
2023/02/14 12:13:00;;;;;;;42.92;24.27;;;3.00;99.90;;;;;;5005580;28;20061;-58
2023/02/14 12:15:39;;;;;;;42.90;23.35;;;3.00;99.90;;;;;;5022206;28;20037;-54
2023/02/14 12:18:36;;;;;;;44.15;24.17;;;3.10;99.90;;;;;;5020797;28;20018;-59
2023/02/14 12:21:21;;;;;;;40.95;21.95;;;3.10;99.90;;;;;;5021278;28;20045;-59
2023/02/14 12:24:29;;;;;;;41.92;22.40;;;3.20;99.90;;;;;;5002954;28;20022;-60
2023/02/14 12:27:19;;;;;;;51.70;22.90;;;3.30;99.90;;;;;;5020275;28;20049;-59
2023/02/14 12:29:48;;;;;;;44.58;23.25;;;3.40;99.90;;;;;;5018862;28;20482;-56
2023/02/14 12:32:26;;;;;;;41.88;22.88;;;3.60;99.90;;;;;;4997159;28;20509;-53
2023/02/14 12:35:15;;;;;;;42.38;21.98;;;3.70;99.90;;;;;;5012864;28;20029;-53
2023/02/14 12:38:04;;;;;;;42.92;22.90;;;3.70;99.90;;;;;;4994349;28;20104;-57
2023/02/14 12:40:51;;;;;;;43.88;23.85;;;3.80;99.90;;;;;;5012930;28;20056;-54
2023/02/14 12:43:36;;;;;;;39.72;21.88;;;3.90;99.90;;;;;;4995368;28;20087;-59
2023/02/14 12:46:32;;;;;;;37.80;21.25;;;3.90;99.90;;;;;;4992728;28;20038;-57
2023/02/14 12:49:27;;;;;;;34.30;19.33;;;3.90;99.90;;;;;;4993687;28;20031;-57
2023/02/14 12:52:24;;;;;;;35.95;20.35;;;3.90;99.90;;;;;;4994026;28;20023;-54
2023/02/14 12:55:02;;;;;;;35.15;19.80;;;3.80;99.90;;;;;;4994246;28;20054;-58
2023/02/14 12:57:40;;;;;;;32.50;19.23;;;3.80;99.90;;;;;;4993453;28;20065;-57
2023/02/14 13:00:11;;;;;;;32.28;17.70;;;3.80;99.90;;;;;;4992989;28;20030;-55
2023/02/14 13:02:55;;;;;;;32.53;19.25;;;3.80;99.90;;;;;;4996050;28;20045;-55
2023/02/14 13:05:42;;;;;;;31.63;18.48;;;3.90;99.90;;;;;;5010667;28;20025;-51
2023/02/14 13:08:16;;;;;;;29.60;18.27;;;4.00;99.90;;;;;;4997619;28;20083;-55
2023/02/14 13:11:13;;;;;;;33.22;18.67;;;4.10;99.90;;;;;;5007249;28;20489;-55